createdAt,value
2022-09-06T00:00:17.063Z,98953.97
2022-09-06T00:02:45.034Z,98952.41
2022-09-06T00:05:12.922Z,98955.66
2022-09-06T00:07:39.710Z,98954.78
2022-09-06T00:10:07.362Z,98959.56
2022-09-06T00:12:34.126Z,98947.81
2022-09-06T00:15:00.829Z,98947.22
2022-09-06T00:17:27.662Z,98921.28
2022-09-06T00:19:54.312Z,98912.13
2022-09-06T00:24:47.594Z,98899.09
2022-09-06T00:27:14.193Z,98871.72
2022-09-06T00:29:40.887Z,98856.56
2022-09-06T00:32:08.482Z,98833.44
2022-09-06T00:34:35.134Z,98820.28
2022-09-06T00:37:01.791Z,98806.84
2022-09-06T00:39:28.465Z,98800.66
2022-09-06T00:41:55.111Z,98782.88
2022-09-06T00:44:21.746Z,98769.28
2022-09-06T00:46:50.806Z,98775.03
2022-09-06T00:49:26.045Z,98758.94
2022-09-06T00:52:01.810Z,98734.84
2022-09-06T00:54:28.800Z,98731.25
2022-09-06T00:56:57.918Z,98732.63
2022-09-06T00:59:31.351Z,98739.91
2022-09-06T01:01:58.941Z,98741.59
2022-09-06T01:04:27.109Z,98731.50
2022-09-06T01:07:06.485Z,98725.03
2022-09-06T01:09:47.375Z,98721.66
2022-09-06T01:12:30.494Z,98729.41
2022-09-06T01:15:20.662Z,98744.81
2022-09-06T01:17:53.415Z,98739.59
2022-09-06T01:20:45.373Z,98747.34
2022-09-06T01:23:33.798Z,98736.25
2022-09-06T01:26:15.584Z,98735.00
2022-09-06T01:28:45.098Z,98728.44
2022-09-06T01:31:36.730Z,98720.88
2022-09-06T01:34:06.289Z,98711.63
2022-09-06T01:36:49.778Z,98706.28
2022-09-06T01:39:34.321Z,98711.75
2022-09-06T01:42:10.240Z,98717.09
2022-09-06T01:44:41.085Z,98716.41
2022-09-06T01:47:29.451Z,98722.97
2022-09-06T01:50:17.063Z,98721.88
2022-09-06T01:52:58.862Z,98721.91
2022-09-06T01:56:04.073Z,98714.72
2022-09-06T01:58:58.991Z,98720.63
2022-09-06T02:01:43.353Z,98720.75
2022-09-06T02:04:27.170Z,98725.25
2022-09-06T02:07:13.367Z,98716.41
2022-09-06T02:09:43.712Z,98723.81
2022-09-06T02:12:13.426Z,98728.75
2022-09-06T02:14:48.121Z,98721.19
2022-09-06T02:17:19.746Z,98715.69
2022-09-06T02:19:53.753Z,98713.31
2022-09-06T02:22:24.080Z,98708.13
2022-09-06T02:24:53.766Z,98709.81
2022-09-06T02:27:20.575Z,98716.78
2022-09-06T02:29:47.279Z,98716.78
2022-09-06T02:32:19.723Z,98709.53
2022-09-06T02:34:46.817Z,98713.84
2022-09-06T02:37:15.232Z,98703.22
2022-09-06T02:39:41.899Z,98709.09
2022-09-06T02:42:11.590Z,98714.25
2022-09-06T02:44:38.385Z,98714.00
2022-09-06T02:47:05.770Z,98697.56
2022-09-06T02:49:32.648Z,98714.91
2022-09-06T02:51:59.324Z,98716.72
2022-09-06T02:54:25.962Z,98717.16
2022-09-06T02:56:52.753Z,98723.69
2022-09-06T02:59:19.652Z,98733.88
2022-09-06T03:01:46.279Z,98739.91
2022-09-06T03:04:12.964Z,98738.09
2022-09-06T03:06:39.551Z,98735.97
2022-09-06T03:09:06.145Z,98741.84
2022-09-06T03:11:32.793Z,98741.72
2022-09-06T03:14:00.691Z,98742.31
2022-09-06T03:16:27.592Z,98738.50
2022-09-06T03:18:54.291Z,98741.44
2022-09-06T03:21:20.953Z,98740.88
2022-09-06T03:23:47.538Z,98737.38
2022-09-06T03:26:14.167Z,98748.84
2022-09-06T03:28:41.069Z,98741.84
2022-09-06T03:31:07.804Z,98742.13
2022-09-06T03:33:34.643Z,98736.38
2022-09-06T03:36:03.156Z,98735.50
2022-09-06T03:38:30.295Z,98731.06
2022-09-06T03:40:57.357Z,98741.81
2022-09-06T03:43:25.566Z,98755.25
2022-09-06T03:45:54.598Z,98756.34
2022-09-06T03:48:23.416Z,98751.41
2022-09-06T03:50:53.999Z,98749.97
2022-09-06T03:53:21.374Z,98747.44
2022-09-06T03:55:49.966Z,98748.41
2022-09-06T03:58:18.204Z,98750.50
2022-09-06T04:00:45.233Z,98747.28
2022-09-06T04:03:12.733Z,98763.22
2022-09-06T04:05:39.391Z,98760.94
2022-09-06T04:08:06.145Z,98765.69
2022-09-06T04:10:32.979Z,98761.59
2022-09-06T04:12:59.594Z,98763.53
2022-09-06T04:15:29.020Z,98769.81
2022-09-06T04:17:58.534Z,98761.53
2022-09-06T04:20:26.599Z,98767.81
2022-09-06T04:22:53.684Z,98758.81
2022-09-06T04:25:22.633Z,98751.81
2022-09-06T04:27:49.265Z,98751.94
2022-09-06T04:30:16.222Z,98758.00
2022-09-06T04:32:42.985Z,98766.34
2022-09-06T04:35:09.776Z,98768.41
2022-09-06T04:37:36.344Z,98764.16
2022-09-06T04:40:03.930Z,98768.78
2022-09-06T04:42:30.861Z,98762.75
2022-09-06T04:44:57.431Z,98761.06
2022-09-06T04:47:25.080Z,98751.81
2022-09-06T04:49:51.783Z,98766.03
2022-09-06T04:52:18.369Z,98767.03
2022-09-06T04:54:44.973Z,98765.72
2022-09-06T04:57:11.567Z,98765.00
2022-09-06T04:59:38.166Z,98775.75
2022-09-06T05:02:04.911Z,98775.75
2022-09-06T05:04:31.622Z,98767.81
2022-09-06T05:07:02.986Z,98774.19
2022-09-06T05:09:30.910Z,98776.84
2022-09-06T05:11:57.811Z,98772.41
2022-09-06T05:14:24.578Z,98776.25
2022-09-06T05:16:51.473Z,98780.72
2022-09-06T05:19:19.098Z,98776.97
2022-09-06T05:21:46.041Z,98760.06
2022-09-06T05:24:12.704Z,98773.59
2022-09-06T05:26:39.320Z,98770.56
2022-09-06T05:29:06.242Z,98770.59
2022-09-06T05:31:34.630Z,98765.00
2022-09-06T05:34:01.405Z,98770.50
2022-09-06T05:36:29.514Z,98769.41
2022-09-06T05:38:57.306Z,98771.34
2022-09-06T05:41:24.897Z,98772.97
2022-09-06T05:43:51.499Z,98776.22
2022-09-06T05:46:18.443Z,98764.09
2022-09-06T05:48:52.174Z,98766.97
2022-09-06T05:51:18.811Z,98776.63
2022-09-06T05:53:45.946Z,98775.28
2022-09-06T05:56:14.601Z,98784.84
2022-09-06T05:58:41.325Z,98779.72
2022-09-06T06:01:13.569Z,98779.63
2022-09-06T06:03:40.416Z,98782.28
2022-09-06T06:06:07.274Z,98791.44
2022-09-06T06:08:35.674Z,98792.31
2022-09-06T06:11:02.514Z,98794.09
2022-09-06T06:13:29.951Z,98808.16
2022-09-06T06:15:56.704Z,98798.53
2022-09-06T06:18:23.464Z,98802.72
2022-09-06T06:20:50.612Z,98794.63
2022-09-06T06:23:17.222Z,98798.31
2022-09-06T06:25:43.856Z,98794.75
2022-09-06T06:28:10.450Z,98786.25
2022-09-06T06:30:37.035Z,98788.25
2022-09-06T06:33:03.700Z,98786.88
2022-09-06T06:35:30.278Z,98786.97
2022-09-06T06:37:57.078Z,98794.88
2022-09-06T06:40:23.863Z,98785.38
2022-09-06T06:42:50.539Z,98790.72
2022-09-06T06:45:17.156Z,98791.78
2022-09-06T06:47:43.964Z,98788.00
2022-09-06T06:50:10.741Z,98781.03
2022-09-06T06:52:37.385Z,98780.38
2022-09-06T06:55:05.995Z,98782.06
2022-09-06T06:57:32.977Z,98773.00
2022-09-06T06:59:59.664Z,98772.59
2022-09-06T07:02:26.399Z,98777.06
2022-09-06T07:04:53.016Z,98782.41
2022-09-06T07:07:36.692Z,98778.16
2022-09-06T07:12:55.860Z,98779.91
2022-09-06T07:15:22.553Z,98775.78
2022-09-06T07:17:49.173Z,98779.16
2022-09-06T07:20:20.375Z,98778.31
2022-09-06T07:22:47.098Z,98783.34
2022-09-06T07:25:19.032Z,98778.25
2022-09-06T07:27:48.945Z,98771.69
2022-09-06T07:30:16.491Z,98775.44
2022-09-06T07:32:43.188Z,98764.22
2022-09-06T07:35:09.972Z,98770.88
2022-09-06T07:37:36.771Z,98766.41
2022-09-06T07:40:07.641Z,98769.28
2022-09-06T07:42:36.431Z,98761.41
2022-09-06T07:45:04.244Z,98765.03
2022-09-06T07:55:32.679Z,98759.31
2022-09-06T07:57:59.260Z,98768.22
2022-09-06T08:00:25.855Z,98762.53
2022-09-06T08:02:52.457Z,98758.69
2022-09-06T08:10:52.243Z,98757.03
2022-09-06T08:13:18.848Z,98759.00
2022-09-06T08:15:45.404Z,98760.50
2022-09-06T08:18:12.158Z,98757.94
2022-09-06T08:20:38.944Z,98758.56
2022-09-06T08:23:11.654Z,98756.06
2022-09-06T08:25:38.272Z,98763.28
2022-09-06T08:28:05.040Z,98767.84
2022-09-06T08:30:33.066Z,98758.91
2022-09-06T08:32:59.885Z,98769.56
2022-09-06T08:35:26.526Z,98765.31
2022-09-06T08:37:53.170Z,98767.50
2022-09-06T08:40:22.072Z,98770.38
2022-09-06T08:42:48.922Z,98763.94
2022-09-06T08:45:21.856Z,98768.72
2022-09-06T08:47:50.877Z,98771.63
2022-09-06T08:50:18.250Z,98770.81
2022-09-06T08:53:18.559Z,98775.25
2022-09-06T08:55:55.286Z,98768.72
2022-09-06T08:58:40.892Z,98774.75
2022-09-06T09:01:32.596Z,98775.19
2022-09-06T09:04:05.551Z,98769.97
2022-09-06T09:06:33.178Z,98772.38
2022-09-06T09:09:08.932Z,98758.31
2022-09-06T09:11:36.381Z,98747.97
2022-09-06T09:14:08.764Z,98751.28
2022-09-06T09:16:35.737Z,98753.19
2022-09-06T09:19:05.425Z,98753.38
2022-09-06T09:21:36.420Z,98757.59
2022-09-06T09:24:09.870Z,98763.88
2022-09-06T09:27:04.007Z,98750.88
2022-09-06T09:29:35.692Z,98751.50
2022-09-06T09:32:03.453Z,98745.03
2022-09-06T09:34:39.889Z,98746.34
2022-09-06T09:40:57.294Z,98734.78
2022-09-06T09:43:55.170Z,98742.59
2022-09-06T09:46:24.774Z,98733.84
2022-09-06T09:49:06.906Z,98738.78
2022-09-06T09:52:03.606Z,98740.00
2022-09-06T09:54:32.154Z,98733.94
2022-09-06T09:56:59.228Z,98740.53
2022-09-06T09:59:40.379Z,98737.53
2022-09-06T10:02:27.577Z,98740.16
2022-09-06T10:05:02.276Z,98736.56
2022-09-06T10:07:29.202Z,98744.53
2022-09-06T10:10:00.832Z,98737.09
2022-09-06T10:12:30.690Z,98737.66
2022-09-06T10:14:57.861Z,98742.56
2022-09-06T10:17:33.383Z,98736.31
2022-09-06T10:20:05.052Z,98732.22
2022-09-06T10:22:34.303Z,98734.28
2022-09-06T10:25:19.653Z,98735.94
2022-09-06T10:28:23.995Z,98738.19
2022-09-06T10:31:12.702Z,98732.66
2022-09-06T10:34:10.378Z,98725.91
2022-09-06T10:37:16.577Z,98720.06
2022-09-06T10:39:58.786Z,98712.94
2022-09-06T10:42:31.367Z,98727.41
2022-09-06T10:45:16.723Z,98711.28
2022-09-06T10:48:14.749Z,98706.91
2022-09-06T10:50:50.640Z,98712.97
2022-09-06T10:53:43.553Z,98699.22
2022-09-06T10:56:17.504Z,98698.25
2022-09-06T11:02:15.875Z,98694.41
2022-09-06T11:07:35.545Z,98669.88
2022-09-06T11:10:23.896Z,98677.41
2022-09-06T11:12:55.808Z,98677.41
2022-09-06T11:15:27.123Z,98665.09
2022-09-06T11:18:18.820Z,98666.56
2022-09-06T11:20:50.957Z,98658.84
2022-09-06T11:23:48.390Z,98659.72
2022-09-06T11:26:40.442Z,98659.13
2022-09-06T11:29:43.035Z,98649.69
2022-09-06T11:32:30.298Z,98646.81
2022-09-06T11:35:03.317Z,98651.94
2022-09-06T11:37:43.933Z,98648.19
2022-09-06T11:40:30.224Z,98646.53
2022-09-06T11:42:59.266Z,98649.78
2022-09-06T11:45:45.931Z,98656.25
2022-09-06T11:48:34.325Z,98642.81
2022-09-06T11:51:02.948Z,98643.78
2022-09-06T11:53:33.891Z,98641.59
2022-09-06T11:56:00.416Z,98640.06
2022-09-06T11:58:33.405Z,98640.28
2022-09-06T12:01:12.328Z,98633.56
2022-09-06T12:06:40.749Z,98639.50
2022-09-06T12:09:31.158Z,98641.22
2022-09-06T12:11:59.436Z,98633.72
2022-09-06T12:14:33.794Z,98633.75
2022-09-06T12:17:07.213Z,98631.72
2022-09-06T12:19:44.474Z,98635.31
2022-09-06T12:22:29.629Z,98630.84
2022-09-06T12:25:02.051Z,98631.25
2022-09-06T12:27:39.995Z,98629.84
2022-09-06T12:30:12.537Z,98635.06
2022-09-06T12:32:51.957Z,98630.22
2022-09-06T12:38:17.210Z,98616.53
2022-09-06T12:40:49.737Z,98617.72
2022-09-06T12:43:19.063Z,98619.28
2022-09-06T12:45:51.568Z,98618.28
2022-09-06T12:48:30.676Z,98607.97
2022-09-06T12:51:19.424Z,98610.44
2022-09-06T12:53:54.119Z,98606.63
2022-09-06T12:56:23.190Z,98599.59
2022-09-06T12:58:49.885Z,98599.19
2022-09-06T13:01:26.567Z,98594.28
2022-09-06T13:04:15.782Z,98590.84
2022-09-06T13:06:45.831Z,98589.16
2022-09-06T13:09:16.636Z,98582.50
2022-09-06T13:11:46.632Z,98578.53
2022-09-06T13:14:19.530Z,98572.44
2022-09-06T13:16:51.230Z,98576.09
2022-09-06T13:19:33.775Z,98569.81
2022-09-06T13:22:01.858Z,98563.09
2022-09-06T13:24:34.504Z,98569.75
2022-09-06T13:27:21.407Z,98569.66
2022-09-06T13:29:58.331Z,98568.94
2022-09-06T13:32:26.911Z,98554.63
2022-09-06T13:34:57.086Z,98560.28
2022-09-06T13:37:33.742Z,98552.59
2022-09-06T13:40:05.539Z,98547.13
2022-09-06T13:42:35.912Z,98546.81
2022-09-06T13:45:24.894Z,98541.47
2022-09-06T13:47:56.859Z,98540.78
2022-09-06T13:50:29.930Z,98533.91
2022-09-06T13:52:57.163Z,98535.09
2022-09-06T13:55:28.088Z,98523.66
2022-09-06T13:57:54.666Z,98520.47
2022-09-06T14:00:21.291Z,98522.91
2022-09-06T14:02:49.005Z,98510.72
2022-09-06T14:05:16.712Z,98513.44
2022-09-06T14:07:45.055Z,98510.50
2022-09-06T14:10:11.672Z,98510.63
2022-09-06T14:12:38.591Z,98504.59
2022-09-06T14:15:06.208Z,98500.16
2022-09-06T14:17:35.571Z,98501.09
2022-09-06T14:20:02.334Z,98501.50
2022-09-06T14:22:29.048Z,98497.78
2022-09-06T14:24:55.769Z,98491.69
2022-09-06T14:27:22.386Z,98491.28
2022-09-06T14:29:49.349Z,98490.75
2022-09-06T14:32:19.293Z,98498.22
2022-09-06T14:34:48.947Z,98495.19
2022-09-06T14:37:15.642Z,98489.97
2022-09-06T14:39:42.346Z,98487.00
2022-09-06T14:42:09.054Z,98475.75
2022-09-06T14:44:35.688Z,98471.53
2022-09-06T14:47:03.406Z,98468.56
2022-09-06T14:49:32.126Z,98461.47
2022-09-06T14:51:58.817Z,98462.88
2022-09-06T14:54:29.164Z,98456.88
2022-09-06T14:56:56.403Z,98466.91
2022-09-06T14:59:23.180Z,98466.06
2022-09-06T15:01:49.875Z,98460.28
2022-09-06T15:04:16.769Z,98460.06
2022-09-06T15:06:47.461Z,98458.78
2022-09-06T15:09:18.650Z,98452.97
2022-09-06T15:11:51.875Z,98457.59
2022-09-06T15:14:27.045Z,98446.34
2022-09-06T15:17:00.390Z,98437.00
2022-09-06T15:19:29.366Z,98433.94
2022-09-06T15:21:58.806Z,98441.41
2022-09-06T15:24:26.271Z,98437.72
2022-09-06T15:26:55.059Z,98435.59
2022-09-06T15:29:23.004Z,98437.91
2022-09-06T15:31:50.723Z,98436.44
2022-09-06T15:34:22.576Z,98434.88
2022-09-06T15:36:50.123Z,98431.41
2022-09-06T15:39:17.581Z,98426.91
2022-09-06T15:41:44.438Z,98417.63
2022-09-06T15:44:13.649Z,98419.97
2022-09-06T15:46:52.208Z,98420.91
2022-09-06T15:49:26.922Z,98426.66
2022-09-06T15:51:56.236Z,98426.53
2022-09-06T15:54:41.374Z,98433.19
2022-09-06T15:57:08.353Z,98426.50
2022-09-06T15:59:34.990Z,98425.38
2022-09-06T16:02:02.225Z,98424.81
2022-09-06T16:04:29.204Z,98422.84
2022-09-06T16:06:56.787Z,98417.88
2022-09-06T16:09:23.694Z,98417.03
2022-09-06T16:11:50.394Z,98413.50
2022-09-06T16:14:17.912Z,98410.69
2022-09-06T16:16:44.956Z,98419.25
2022-09-06T16:19:13.052Z,98409.78
2022-09-06T16:21:42.074Z,98412.13
2022-09-06T16:24:10.965Z,98417.22
2022-09-06T16:26:46.758Z,98419.16
2022-09-06T16:29:18.047Z,98406.97
2022-09-06T16:31:45.405Z,98409.28
2022-09-06T16:34:12.703Z,98405.81
2022-09-06T16:36:39.997Z,98403.50
2022-09-06T16:39:07.488Z,98413.97
2022-09-06T16:41:45.779Z,98400.47
2022-09-06T16:44:16.765Z,98416.31
2022-09-06T16:46:46.320Z,98418.00
2022-09-06T16:49:13.262Z,98412.84
2022-09-06T16:51:40.021Z,98408.94
2022-09-06T16:54:06.931Z,98415.22
2022-09-06T16:56:36.001Z,98409.03
2022-09-06T16:59:06.520Z,98413.41
2022-09-06T17:01:35.230Z,98403.44
2022-09-06T17:04:05.792Z,98411.97
2022-09-06T17:06:34.232Z,98409.06
2022-09-06T17:09:00.983Z,98408.25
2022-09-06T17:11:28.758Z,98399.13
2022-09-06T17:13:56.234Z,98398.31
2022-09-06T17:16:42.484Z,98394.34
2022-09-06T17:19:10.077Z,98383.38
2022-09-06T17:21:37.432Z,98391.91
2022-09-06T17:24:05.197Z,98370.75
2022-09-06T17:26:34.130Z,98382.56
2022-09-06T17:29:01.536Z,98375.91
2022-09-06T17:31:28.808Z,98380.69
2022-09-06T17:33:55.828Z,98384.22
2022-09-06T17:36:25.239Z,98383.81
2022-09-06T17:38:54.158Z,98378.19
2022-09-06T17:41:27.455Z,98377.34
2022-09-06T17:43:55.046Z,98369.47
2022-09-06T17:46:28.370Z,98367.34
2022-09-06T17:48:56.387Z,98368.34
2022-09-06T17:51:23.045Z,98378.94
2022-09-06T17:53:49.796Z,98372.03
2022-09-06T17:56:18.001Z,98368.72
2022-09-06T17:58:53.421Z,98378.03
2022-09-06T18:01:20.204Z,98372.78
2022-09-06T18:03:47.820Z,98375.66
2022-09-06T18:06:20.016Z,98375.19
2022-09-06T18:08:47.902Z,98380.94
2022-09-06T18:11:20.920Z,98392.06
2022-09-06T18:13:48.300Z,98395.91
2022-09-06T18:16:15.079Z,98397.75
2022-09-06T18:18:42.192Z,98403.50
2022-09-06T18:21:08.838Z,98413.56
2022-09-06T18:23:35.820Z,98410.19
2022-09-06T18:26:07.785Z,98413.38
2022-09-06T18:28:36.484Z,98416.38
2022-09-06T18:31:12.361Z,98414.03
2022-09-06T18:33:40.480Z,98411.03
2022-09-06T18:36:09.246Z,98409.69
2022-09-06T18:38:38.164Z,98400.19
2022-09-06T18:41:07.503Z,98409.03
2022-09-06T18:43:36.429Z,98398.50
2022-09-06T18:46:09.092Z,98405.72
2022-09-06T18:48:37.304Z,98407.22
2022-09-06T18:51:09.512Z,98409.84
2022-09-06T18:53:36.263Z,98406.69
2022-09-06T18:56:02.936Z,98411.47
2022-09-06T18:58:29.729Z,98401.81
2022-09-06T19:01:08.180Z,98391.97
2022-09-06T19:03:36.454Z,98395.88
2022-09-06T19:06:09.615Z,98392.72
2022-09-06T19:08:36.386Z,98383.00
2022-09-06T19:11:09.425Z,98374.31
2022-09-06T19:13:37.966Z,98385.22
2022-09-06T19:16:06.130Z,98386.88
2022-09-06T19:18:36.909Z,98378.19
2022-09-06T19:21:15.108Z,98378.38
2022-09-06T19:23:44.954Z,98375.03
2022-09-06T19:26:18.050Z,98367.34
2022-09-06T19:28:53.374Z,98360.69
2022-09-06T19:31:20.401Z,98361.88
2022-09-06T19:36:15.895Z,98360.00
2022-09-06T19:39:01.983Z,98367.09
2022-09-06T19:41:30.502Z,98369.13
2022-09-06T19:43:58.263Z,98362.47
2022-09-06T19:46:25.824Z,98370.03
2022-09-06T19:48:54.098Z,98370.16
2022-09-06T19:51:21.490Z,98378.94
2022-09-06T19:53:53.436Z,98372.28
2022-09-06T19:56:26.390Z,98372.16
2022-09-06T19:58:58.403Z,98378.09
2022-09-06T20:01:31.187Z,98378.91
2022-09-06T20:04:01.688Z,98379.28
2022-09-06T20:06:28.842Z,98390.00
2022-09-06T20:09:02.404Z,98387.84
2022-09-06T20:11:31.080Z,98387.72
2022-09-06T20:13:57.805Z,98392.34
2022-09-06T20:16:28.384Z,98388.16
2022-09-06T20:18:55.519Z,98380.97
2022-09-06T20:21:22.540Z,98389.22
2022-09-06T20:23:51.042Z,98378.00
2022-09-06T20:26:18.569Z,98377.88
2022-09-06T20:28:45.890Z,98375.31
2022-09-06T20:31:16.662Z,98378.34
2022-09-06T20:33:47.198Z,98371.38
2022-09-06T20:36:17.196Z,98369.72
2022-09-06T20:38:51.251Z,98360.38
2022-09-06T20:41:23.716Z,98363.91
2022-09-06T20:43:55.770Z,98377.28
2022-09-06T20:46:25.537Z,98390.38
2022-09-06T20:48:56.326Z,98394.38
2022-09-06T20:51:25.074Z,98393.06
2022-09-06T20:53:56.036Z,98394.72
2022-09-06T20:56:27.631Z,98396.72
2022-09-06T20:59:02.525Z,98411.97
2022-09-06T21:01:33.483Z,98406.78
2022-09-06T21:04:01.690Z,98404.78
2022-09-06T21:06:30.241Z,98405.78
2022-09-06T21:08:57.684Z,98406.28
2022-09-06T21:11:24.475Z,98398.41
2022-09-06T21:13:55.773Z,98395.38
2022-09-06T21:16:25.432Z,98391.03
2022-09-06T21:19:00.567Z,98394.72
2022-09-06T21:21:29.134Z,98398.91
2022-09-06T21:23:56.257Z,98388.38
2022-09-06T21:26:23.319Z,98386.72
2022-09-06T21:28:50.342Z,98383.19
2022-09-06T21:31:22.204Z,98385.53
2022-09-06T21:33:55.022Z,98386.38
2022-09-06T21:36:33.113Z,98393.38
2022-09-06T21:39:02.444Z,98397.06
2022-09-06T21:41:30.256Z,98379.19
2022-09-06T21:44:01.984Z,98371.66
2022-09-06T21:46:35.152Z,98369.31
2022-09-06T21:49:07.433Z,98381.50
2022-09-06T21:51:40.235Z,98364.47
2022-09-06T21:54:07.023Z,98366.66
2022-09-06T21:56:35.970Z,98372.84
2022-09-06T21:59:03.482Z,98370.16
2022-09-06T22:01:32.604Z,98366.84
2022-09-06T22:04:00.329Z,98365.81
2022-09-06T22:06:29.040Z,98367.81
2022-09-06T22:08:57.546Z,98367.66
2022-09-06T22:11:27.226Z,98370.34
2022-09-06T22:13:54.298Z,98378.16
2022-09-06T22:16:22.603Z,98391.00
2022-09-06T22:18:49.947Z,98399.69
2022-09-06T22:21:20.161Z,98414.72
2022-09-06T22:23:58.127Z,98424.53
2022-09-06T22:26:27.280Z,98462.09
2022-09-06T22:28:59.336Z,98488.38
2022-09-06T22:31:27.957Z,98500.41
2022-09-06T22:33:55.519Z,98485.53
2022-09-06T22:36:23.862Z,98470.16
2022-09-06T22:38:57.565Z,98460.91
2022-09-06T22:41:26.021Z,98455.25
2022-09-06T22:43:52.842Z,98444.13
2022-09-06T22:46:20.348Z,98427.41
2022-09-06T22:48:47.298Z,98410.44
2022-09-06T22:51:13.910Z,98383.75
2022-09-06T22:53:40.553Z,98372.03
2022-09-06T22:56:07.267Z,98376.47
2022-09-06T22:58:35.328Z,98374.59
2022-09-06T23:01:10.441Z,98356.56
2022-09-06T23:03:37.917Z,98354.50
2022-09-06T23:06:05.011Z,98356.47
2022-09-06T23:08:32.470Z,98365.63
2022-09-06T23:11:07.852Z,98360.91
2022-09-06T23:13:34.998Z,98367.44
2022-09-06T23:16:07.315Z,98370.13
2022-09-06T23:18:34.397Z,98384.97
2022-09-06T23:21:05.912Z,98379.63
2022-09-06T23:23:32.822Z,98392.31
2022-09-06T23:26:04.892Z,98392.09
2022-09-06T23:28:31.681Z,98399.50
2022-09-06T23:31:01.640Z,98379.09
2022-09-06T23:33:29.116Z,98387.44
2022-09-06T23:35:56.096Z,98404.66
2022-09-06T23:38:22.728Z,98405.66
2022-09-06T23:40:49.308Z,98412.66
2022-09-06T23:43:16.000Z,98406.03
2022-09-06T23:45:42.510Z,98397.19
2022-09-06T23:48:09.120Z,98386.53
2022-09-06T23:50:35.742Z,98383.88
2022-09-06T23:53:02.342Z,98394.59
2022-09-06T23:55:28.933Z,98395.41
2022-09-06T23:57:55.561Z,98396.72
